sensor_id;sensor_type;location;lat;lon;timestamp;P1;durP1;ratioP1;P2;durP2;ratioP2
8281;SDS011;25606;42.686;23.136;2023-08-30T00:01:13;6.57;;;5.83;;
8281;SDS011;25606;42.686;23.136;2023-08-30T00:03:41;8.40;;;7.17;;
8281;SDS011;25606;42.686;23.136;2023-08-30T00:06:08;8.17;;;6.87;;
8281;SDS011;25606;42.686;23.136;2023-08-30T00:08:35;10.17;;;6.43;;
8281;SDS011;25606;42.686;23.136;2023-08-30T00:11:02;7.67;;;6.90;;
8281;SDS011;25606;42.686;23.136;2023-08-30T00:13:30;8.80;;;7.90;;
8281;SDS011;25606;42.686;23.136;2023-08-30T00:15:58;9.27;;;8.03;;
8281;SDS011;25606;42.686;23.136;2023-08-30T00:18:27;8.60;;;7.67;;
8281;SDS011;25606;42.686;23.136;2023-08-30T00:20:54;10.77;;;7.53;;
8281;SDS011;25606;42.686;23.136;2023-08-30T00:23:23;9.33;;;7.47;;
8281;SDS011;25606;42.686;23.136;2023-08-30T00:25:50;10.80;;;7.63;;
8281;SDS011;25606;42.686;23.136;2023-08-30T00:28:17;8.17;;;7.33;;
8281;SDS011;25606;42.686;23.136;2023-08-30T00:30:45;8.73;;;7.23;;
8281;SDS011;25606;42.686;23.136;2023-08-30T00:33:12;8.13;;;7.33;;
8281;SDS011;25606;42.686;23.136;2023-08-30T00:35:41;9.00;;;7.37;;
8281;SDS011;25606;42.686;23.136;2023-08-30T00:38:08;8.37;;;7.43;;
8281;SDS011;25606;42.686;23.136;2023-08-30T00:40:38;9.70;;;7.33;;
8281;SDS011;25606;42.686;23.136;2023-08-30T00:43:06;10.00;;;7.00;;
8281;SDS011;25606;42.686;23.136;2023-08-30T00:45:33;8.70;;;7.80;;
8281;SDS011;25606;42.686;23.136;2023-08-30T00:48:01;7.73;;;6.93;;
8281;SDS011;25606;42.686;23.136;2023-08-30T00:50:29;9.90;;;7.20;;
8281;SDS011;25606;42.686;23.136;2023-08-30T00:52:58;8.17;;;7.37;;
8281;SDS011;25606;42.686;23.136;2023-08-30T00:55:30;10.57;;;7.83;;
8281;SDS011;25606;42.686;23.136;2023-08-30T00:57:58;9.63;;;7.67;;
8281;SDS011;25606;42.686;23.136;2023-08-30T01:00:25;7.90;;;7.10;;
8281;SDS011;25606;42.686;23.136;2023-08-30T01:02:53;8.97;;;7.23;;
8281;SDS011;25606;42.686;23.136;2023-08-30T01:05:21;8.73;;;7.87;;
8281;SDS011;25606;42.686;23.136;2023-08-30T01:07:49;10.13;;;7.93;;
8281;SDS011;25606;42.686;23.136;2023-08-30T01:10:18;8.07;;;7.20;;
8281;SDS011;25606;42.686;23.136;2023-08-30T01:12:48;9.20;;;7.73;;
8281;SDS011;25606;42.686;23.136;2023-08-30T01:15:18;11.07;;;7.60;;
8281;SDS011;25606;42.686;23.136;2023-08-30T01:17:46;11.13;;;7.43;;
8281;SDS011;25606;42.686;23.136;2023-08-30T01:20:15;10.07;;;7.40;;
8281;SDS011;25606;42.686;23.136;2023-08-30T01:22:46;9.00;;;8.10;;
8281;SDS011;25606;42.686;23.136;2023-08-30T01:25:17;8.80;;;7.47;;
8281;SDS011;25606;42.686;23.136;2023-08-30T01:27:48;9.63;;;7.50;;
8281;SDS011;25606;42.686;23.136;2023-08-30T01:30:17;10.97;;;7.97;;
8281;SDS011;25606;42.686;23.136;2023-08-30T01:32:45;11.07;;;8.20;;
8281;SDS011;25606;42.686;23.136;2023-08-30T01:35:12;8.53;;;7.63;;
8281;SDS011;25606;42.686;23.136;2023-08-30T01:37:42;8.47;;;6.70;;
8281;SDS011;25606;42.686;23.136;2023-08-30T01:40:11;11.37;;;7.37;;
8281;SDS011;25606;42.686;23.136;2023-08-30T01:42:38;8.43;;;6.80;;
8281;SDS011;25606;42.686;23.136;2023-08-30T01:45:08;8.90;;;7.00;;
8281;SDS011;25606;42.686;23.136;2023-08-30T01:47:38;8.97;;;6.77;;
8281;SDS011;25606;42.686;23.136;2023-08-30T01:50:06;9.43;;;7.60;;
8281;SDS011;25606;42.686;23.136;2023-08-30T01:52:34;11.70;;;6.80;;
8281;SDS011;25606;42.686;23.136;2023-08-30T01:55:01;8.17;;;6.00;;
8281;SDS011;25606;42.686;23.136;2023-08-30T01:57:29;9.33;;;6.00;;
8281;SDS011;25606;42.686;23.136;2023-08-30T01:59:56;7.33;;;5.67;;
8281;SDS011;25606;42.686;23.136;2023-08-30T02:02:25;8.13;;;5.50;;
8281;SDS011;25606;42.686;23.136;2023-08-30T02:04:55;6.53;;;5.47;;
8281;SDS011;25606;42.686;23.136;2023-08-30T02:07:24;7.83;;;5.37;;
8281;SDS011;25606;42.686;23.136;2023-08-30T02:09:54;9.07;;;4.90;;
8281;SDS011;25606;42.686;23.136;2023-08-30T02:12:24;8.40;;;4.60;;
8281;SDS011;25606;42.686;23.136;2023-08-30T02:14:55;6.40;;;5.00;;
8281;SDS011;25606;42.686;23.136;2023-08-30T02:17:25;11.30;;;4.97;;
8281;SDS011;25606;42.686;23.136;2023-08-30T02:19:52;7.43;;;4.67;;
8281;SDS011;25606;42.686;23.136;2023-08-30T02:22:19;8.33;;;4.90;;
8281;SDS011;25606;42.686;23.136;2023-08-30T02:24:46;8.17;;;5.57;;
8281;SDS011;25606;42.686;23.136;2023-08-30T02:27:14;9.20;;;4.40;;
8281;SDS011;25606;42.686;23.136;2023-08-30T02:29:41;6.03;;;4.67;;
8281;SDS011;25606;42.686;23.136;2023-08-30T02:32:08;5.73;;;4.70;;
8281;SDS011;25606;42.686;23.136;2023-08-30T02:34:37;8.70;;;4.83;;
8281;SDS011;25606;42.686;23.136;2023-08-30T02:37:04;7.23;;;5.00;;
8281;SDS011;25606;42.686;23.136;2023-08-30T02:39:32;8.67;;;4.90;;
8281;SDS011;25606;42.686;23.136;2023-08-30T02:41:59;6.40;;;4.40;;
8281;SDS011;25606;42.686;23.136;2023-08-30T02:44:27;6.80;;;4.67;;
8281;SDS011;25606;42.686;23.136;2023-08-30T02:46:54;7.10;;;4.87;;
8281;SDS011;25606;42.686;23.136;2023-08-30T02:49:21;4.77;;;4.17;;
8281;SDS011;25606;42.686;23.136;2023-08-30T02:51:50;6.00;;;4.63;;
8281;SDS011;25606;42.686;23.136;2023-08-30T02:54:17;5.17;;;4.60;;
8281;SDS011;25606;42.686;23.136;2023-08-30T02:56:44;5.37;;;4.37;;
8281;SDS011;25606;42.686;23.136;2023-08-30T02:59:11;6.40;;;4.83;;
8281;SDS011;25606;42.686;23.136;2023-08-30T03:01:39;6.87;;;4.97;;
8281;SDS011;25606;42.686;23.136;2023-08-30T03:04:06;5.93;;;4.77;;
8281;SDS011;25606;42.686;23.136;2023-08-30T03:06:34;9.53;;;5.00;;
8281;SDS011;25606;42.686;23.136;2023-08-30T03:09:03;6.77;;;4.70;;
8281;SDS011;25606;42.686;23.136;2023-08-30T03:11:31;6.03;;;4.83;;
8281;SDS011;25606;42.686;23.136;2023-08-30T03:13:58;5.00;;;4.40;;
8281;SDS011;25606;42.686;23.136;2023-08-30T03:16:26;7.50;;;4.40;;
8281;SDS011;25606;42.686;23.136;2023-08-30T03:18:54;5.97;;;4.47;;
8281;SDS011;25606;42.686;23.136;2023-08-30T03:21:21;8.93;;;3.50;;
8281;SDS011;25606;42.686;23.136;2023-08-30T03:23:48;5.37;;;3.50;;
8281;SDS011;25606;42.686;23.136;2023-08-30T03:26:17;5.30;;;4.00;;
8281;SDS011;25606;42.686;23.136;2023-08-30T03:28:44;6.83;;;3.90;;
8281;SDS011;25606;42.686;23.136;2023-08-30T03:31:12;6.40;;;3.50;;
8281;SDS011;25606;42.686;23.136;2023-08-30T03:33:39;5.77;;;4.30;;
8281;SDS011;25606;42.686;23.136;2023-08-30T03:36:07;6.17;;;4.10;;
8281;SDS011;25606;42.686;23.136;2023-08-30T03:38:35;6.17;;;3.83;;
8281;SDS011;25606;42.686;23.136;2023-08-30T03:41:02;7.27;;;3.93;;
8281;SDS011;25606;42.686;23.136;2023-08-30T03:43:31;5.67;;;3.67;;
8281;SDS011;25606;42.686;23.136;2023-08-30T03:45:59;4.97;;;3.30;;
8281;SDS011;25606;42.686;23.136;2023-08-30T03:48:26;6.60;;;3.70;;
8281;SDS011;25606;42.686;23.136;2023-08-30T03:50:54;5.90;;;3.67;;
8281;SDS011;25606;42.686;23.136;2023-08-30T03:53:21;8.90;;;3.70;;
8281;SDS011;25606;42.686;23.136;2023-08-30T03:55:48;4.93;;;3.77;;
8281;SDS011;25606;42.686;23.136;2023-08-30T03:58:16;6.20;;;3.63;;
8281;SDS011;25606;42.686;23.136;2023-08-30T04:00:45;6.80;;;3.90;;
8281;SDS011;25606;42.686;23.136;2023-08-30T04:03:13;6.50;;;3.53;;
8281;SDS011;25606;42.686;23.136;2023-08-30T04:05:40;5.73;;;3.63;;
8281;SDS011;25606;42.686;23.136;2023-08-30T04:08:08;7.03;;;3.83;;
8281;SDS011;25606;42.686;23.136;2023-08-30T04:10:35;5.90;;;3.70;;
8281;SDS011;25606;42.686;23.136;2023-08-30T04:13:02;5.20;;;3.37;;
8281;SDS011;25606;42.686;23.136;2023-08-30T04:15:32;7.53;;;3.83;;
8281;SDS011;25606;42.686;23.136;2023-08-30T04:18:01;7.60;;;4.43;;
8281;SDS011;25606;42.686;23.136;2023-08-30T04:20:29;6.97;;;5.07;;
8281;SDS011;25606;42.686;23.136;2023-08-30T04:22:57;20.60;;;6.50;;
8281;SDS011;25606;42.686;23.136;2023-08-30T04:25:26;8.67;;;5.13;;
8281;SDS011;25606;42.686;23.136;2023-08-30T04:27:54;6.87;;;3.87;;
8281;SDS011;25606;42.686;23.136;2023-08-30T04:30:21;5.80;;;4.03;;
8281;SDS011;25606;42.686;23.136;2023-08-30T04:32:48;6.70;;;4.13;;
8281;SDS011;25606;42.686;23.136;2023-08-30T04:35:18;9.80;;;4.50;;
8281;SDS011;25606;42.686;23.136;2023-08-30T04:37:45;8.20;;;4.13;;
8281;SDS011;25606;42.686;23.136;2023-08-30T04:40:13;9.47;;;4.33;;
8281;SDS011;25606;42.686;23.136;2023-08-30T04:42:41;8.57;;;5.00;;
8281;SDS011;25606;42.686;23.136;2023-08-30T04:45:09;7.13;;;4.93;;
8281;SDS011;25606;42.686;23.136;2023-08-30T04:47:37;9.27;;;5.10;;
8281;SDS011;25606;42.686;23.136;2023-08-30T04:50:05;9.60;;;5.47;;
8281;SDS011;25606;42.686;23.136;2023-08-30T04:52:34;13.67;;;5.70;;
8281;SDS011;25606;42.686;23.136;2023-08-30T04:55:01;8.30;;;5.70;;
8281;SDS011;25606;42.686;23.136;2023-08-30T04:57:28;8.43;;;6.10;;
8281;SDS011;25606;42.686;23.136;2023-08-30T04:59:56;11.27;;;6.27;;
8281;SDS011;25606;42.686;23.136;2023-08-30T05:02:24;10.80;;;6.50;;
8281;SDS011;25606;42.686;23.136;2023-08-30T05:04:52;8.53;;;6.10;;
8281;SDS011;25606;42.686;23.136;2023-08-30T05:07:19;9.93;;;6.10;;
8281;SDS011;25606;42.686;23.136;2023-08-30T05:09:48;12.37;;;6.27;;
8281;SDS011;25606;42.686;23.136;2023-08-30T05:12:15;11.80;;;6.60;;
8281;SDS011;25606;42.686;23.136;2023-08-30T05:14:42;8.17;;;6.37;;
8281;SDS011;25606;42.686;23.136;2023-08-30T05:17:09;7.70;;;7.00;;
8281;SDS011;25606;42.686;23.136;2023-08-30T05:19:37;7.17;;;6.40;;
8281;SDS011;25606;42.686;23.136;2023-08-30T05:22:04;9.37;;;7.03;;
8281;SDS011;25606;42.686;23.136;2023-08-30T05:24:31;10.43;;;7.23;;
8281;SDS011;25606;42.686;23.136;2023-08-30T05:27:00;9.63;;;7.00;;
8281;SDS011;25606;42.686;23.136;2023-08-30T05:29:27;8.23;;;6.23;;
8281;SDS011;25606;42.686;23.136;2023-08-30T05:31:55;10.57;;;6.77;;
8281;SDS011;25606;42.686;23.136;2023-08-30T05:34:22;7.57;;;6.37;;
8281;SDS011;25606;42.686;23.136;2023-08-30T05:36:52;6.63;;;5.70;;
8281;SDS011;25606;42.686;23.136;2023-08-30T05:39:19;10.33;;;6.00;;
8281;SDS011;25606;42.686;23.136;2023-08-30T05:41:46;7.93;;;5.73;;
8281;SDS011;25606;42.686;23.136;2023-08-30T05:44:15;11.20;;;6.00;;
8281;SDS011;25606;42.686;23.136;2023-08-30T05:46:42;7.77;;;5.27;;
8281;SDS011;25606;42.686;23.136;2023-08-30T05:49:10;5.67;;;4.57;;
8281;SDS011;25606;42.686;23.136;2023-08-30T05:51:38;7.80;;;6.30;;
8281;SDS011;25606;42.686;23.136;2023-08-30T05:54:05;6.47;;;5.27;;
8281;SDS011;25606;42.686;23.136;2023-08-30T05:56:32;6.10;;;4.90;;
8281;SDS011;25606;42.686;23.136;2023-08-30T05:58:59;4.83;;;4.10;;
8281;SDS011;25606;42.686;23.136;2023-08-30T06:01:28;6.83;;;3.60;;
8281;SDS011;25606;42.686;23.136;2023-08-30T06:03:55;3.83;;;3.33;;
8281;SDS011;25606;42.686;23.136;2023-08-30T06:06:23;5.37;;;3.20;;
8281;SDS011;25606;42.686;23.136;2023-08-30T06:08:50;3.93;;;3.33;;
8281;SDS011;25606;42.686;23.136;2023-08-30T06:11:17;5.40;;;3.07;;
8281;SDS011;25606;42.686;23.136;2023-08-30T06:13:44;7.87;;;4.40;;
8281;SDS011;25606;42.686;23.136;2023-08-30T06:16:12;4.00;;;3.43;;
8281;SDS011;25606;42.686;23.136;2023-08-30T06:18:40;7.47;;;3.63;;
8281;SDS011;25606;42.686;23.136;2023-08-30T06:21:08;3.97;;;3.53;;
8281;SDS011;25606;42.686;23.136;2023-08-30T06:23:38;6.77;;;4.63;;
8281;SDS011;25606;42.686;23.136;2023-08-30T06:26:05;4.40;;;3.47;;
8281;SDS011;25606;42.686;23.136;2023-08-30T06:28:33;6.73;;;3.83;;
8281;SDS011;25606;42.686;23.136;2023-08-30T06:31:00;8.07;;;4.40;;
8281;SDS011;25606;42.686;23.136;2023-08-30T06:33:27;8.30;;;4.63;;
8281;SDS011;25606;42.686;23.136;2023-08-30T06:35:56;7.33;;;5.17;;
8281;SDS011;25606;42.686;23.136;2023-08-30T06:38:23;5.73;;;3.73;;
8281;SDS011;25606;42.686;23.136;2023-08-30T06:40:51;6.97;;;5.10;;
8281;SDS011;25606;42.686;23.136;2023-08-30T06:43:18;8.00;;;4.47;;
8281;SDS011;25606;42.686;23.136;2023-08-30T06:45:46;7.17;;;5.17;;
8281;SDS011;25606;42.686;23.136;2023-08-30T06:48:13;8.50;;;5.57;;
8281;SDS011;25606;42.686;23.136;2023-08-30T06:50:40;16.00;;;13.10;;
8281;SDS011;25606;42.686;23.136;2023-08-30T06:53:09;10.97;;;6.20;;
8281;SDS011;25606;42.686;23.136;2023-08-30T06:55:36;16.67;;;13.20;;
8281;SDS011;25606;42.686;23.136;2023-08-30T06:58:03;21.17;;;15.47;;
8281;SDS011;25606;42.686;23.136;2023-08-30T07:00:30;6.50;;;4.23;;
8281;SDS011;25606;42.686;23.136;2023-08-30T07:02:58;14.70;;;10.40;;
8281;SDS011;25606;42.686;23.136;2023-08-30T07:05:25;10.60;;;5.10;;
8281;SDS011;25606;42.686;23.136;2023-08-30T07:07:52;15.23;;;10.00;;
8281;SDS011;25606;42.686;23.136;2023-08-30T07:10:21;12.70;;;5.20;;
8281;SDS011;25606;42.686;23.136;2023-08-30T07:12:48;12.43;;;5.50;;
8281;SDS011;25606;42.686;23.136;2023-08-30T07:15:15;12.65;;;4.60;;
8281;SDS011;25606;42.686;23.136;2023-08-30T07:17:43;12.95;;;6.53;;
8281;SDS011;25606;42.686;23.136;2023-08-30T07:20:10;9.68;;;4.88;;
8281;SDS011;25606;42.686;23.136;2023-08-30T07:22:38;9.05;;;5.18;;
8281;SDS011;25606;42.686;23.136;2023-08-30T07:25:06;15.43;;;6.22;;
8281;SDS011;25606;42.686;23.136;2023-08-30T07:27:36;9.25;;;4.72;;
8281;SDS011;25606;42.686;23.136;2023-08-30T07:30:04;9.85;;;4.82;;
8281;SDS011;25606;42.686;23.136;2023-08-30T07:32:32;10.77;;;4.90;;
8281;SDS011;25606;42.686;23.136;2023-08-30T07:35:01;12.37;;;5.40;;
8281;SDS011;25606;42.686;23.136;2023-08-30T07:37:28;12.13;;;5.43;;
8281;SDS011;25606;42.686;23.136;2023-08-30T07:39:55;12.40;;;5.30;;
8281;SDS011;25606;42.686;23.136;2023-08-30T07:42:23;14.23;;;5.57;;
8281;SDS011;25606;42.686;23.136;2023-08-30T07:44:51;17.98;;;6.13;;
8281;SDS011;25606;42.686;23.136;2023-08-30T07:47:18;21.23;;;6.95;;
8281;SDS011;25606;42.686;23.136;2023-08-30T07:49:46;29.30;;;11.27;;
8281;SDS011;25606;42.686;23.136;2023-08-30T07:52:13;33.38;;;16.83;;
8281;SDS011;25606;42.686;23.136;2023-08-30T07:54:41;28.83;;;12.93;;
8281;SDS011;25606;42.686;23.136;2023-08-30T07:57:08;33.42;;;15.38;;
8281;SDS011;25606;42.686;23.136;2023-08-30T07:59:36;36.05;;;24.83;;
8281;SDS011;25606;42.686;23.136;2023-08-30T08:02:05;46.13;;;33.63;;
8281;SDS011;25606;42.686;23.136;2023-08-30T08:04:33;55.63;;;49.80;;
8281;SDS011;25606;42.686;23.136;2023-08-30T08:07:00;84.03;;;75.03;;
8281;SDS011;25606;42.686;23.136;2023-08-30T08:09:28;142.10;;;127.10;;
8281;SDS011;25606;42.686;23.136;2023-08-30T08:11:55;150.00;;;135.02;;
8281;SDS011;25606;42.686;23.136;2023-08-30T08:14:23;179.32;;;162.52;;
8281;SDS011;25606;42.686;23.136;2023-08-30T08:16:50;139.38;;;124.20;;
8281;SDS011;25606;42.686;23.136;2023-08-30T08:19:19;140.55;;;125.70;;
8281;SDS011;25606;42.686;23.136;2023-08-30T08:21:47;156.00;;;139.57;;
8281;SDS011;25606;42.686;23.136;2023-08-30T08:24:14;132.52;;;118.25;;
8281;SDS011;25606;42.686;23.136;2023-08-30T08:26:42;83.25;;;75.07;;
8281;SDS011;25606;42.686;23.136;2023-08-30T08:29:09;60.42;;;53.22;;
8281;SDS011;25606;42.686;23.136;2023-08-30T08:31:36;40.80;;;25.02;;
8281;SDS011;25606;42.686;23.136;2023-08-30T08:34:08;24.90;;;9.45;;
8281;SDS011;25606;42.686;23.136;2023-08-30T08:36:37;34.13;;;10.75;;
8281;SDS011;25606;42.686;23.136;2023-08-30T08:39:05;27.23;;;7.63;;
8281;SDS011;25606;42.686;23.136;2023-08-30T08:41:35;24.25;;;7.68;;
8281;SDS011;25606;42.686;23.136;2023-08-30T08:44:03;21.23;;;7.43;;
8281;SDS011;25606;42.686;23.136;2023-08-30T08:46:31;21.98;;;7.82;;
8281;SDS011;25606;42.686;23.136;2023-08-30T08:48:59;12.63;;;6.15;;
8281;SDS011;25606;42.686;23.136;2023-08-30T08:51:28;15.32;;;6.88;;
8281;SDS011;25606;42.686;23.136;2023-08-30T08:53:58;10.23;;;5.50;;
8281;SDS011;25606;42.686;23.136;2023-08-30T08:56:29;14.18;;;6.78;;
8281;SDS011;25606;42.686;23.136;2023-08-30T08:58:56;15.88;;;6.68;;
8281;SDS011;25606;42.686;23.136;2023-08-30T09:01:24;20.98;;;8.88;;
8281;SDS011;25606;42.686;23.136;2023-08-30T09:03:51;10.07;;;6.07;;
8281;SDS011;25606;42.686;23.136;2023-08-30T09:06:19;11.38;;;6.13;;
8281;SDS011;25606;42.686;23.136;2023-08-30T09:08:46;16.58;;;6.93;;
8281;SDS011;25606;42.686;23.136;2023-08-30T09:11:15;16.13;;;7.03;;
8281;SDS011;25606;42.686;23.136;2023-08-30T09:13:42;16.73;;;7.10;;
8281;SDS011;25606;42.686;23.136;2023-08-30T09:16:12;15.60;;;6.93;;
8281;SDS011;25606;42.686;23.136;2023-08-30T09:18:40;13.55;;;6.45;;
8281;SDS011;25606;42.686;23.136;2023-08-30T09:21:07;12.20;;;6.28;;
8281;SDS011;25606;42.686;23.136;2023-08-30T09:23:35;13.13;;;6.30;;
8281;SDS011;25606;42.686;23.136;2023-08-30T09:26:02;18.17;;;8.18;;
8281;SDS011;25606;42.686;23.136;2023-08-30T09:28:31;15.75;;;6.55;;
8281;SDS011;25606;42.686;23.136;2023-08-30T09:30:58;15.85;;;6.65;;
8281;SDS011;25606;42.686;23.136;2023-08-30T09:33:29;23.23;;;8.38;;
8281;SDS011;25606;42.686;23.136;2023-08-30T09:35:57;17.48;;;7.10;;
8281;SDS011;25606;42.686;23.136;2023-08-30T09:38:25;18.25;;;15.48;;
8281;SDS011;25606;42.686;23.136;2023-08-30T09:41:01;16.30;;;8.93;;
8281;SDS011;25606;42.686;23.136;2023-08-30T09:43:30;31.83;;;27.30;;
8281;SDS011;25606;42.686;23.136;2023-08-30T09:46:02;37.92;;;14.70;;
8281;SDS011;25606;42.686;23.136;2023-08-30T09:48:30;29.45;;;15.57;;
8281;SDS011;25606;42.686;23.136;2023-08-30T09:50:58;41.42;;;24.45;;
8281;SDS011;25606;42.686;23.136;2023-08-30T09:53:26;57.35;;;47.22;;
8281;SDS011;25606;42.686;23.136;2023-08-30T09:55:53;98.22;;;88.03;;
8281;SDS011;25606;42.686;23.136;2023-08-30T09:58:21;134.45;;;120.10;;
8281;SDS011;25606;42.686;23.136;2023-08-30T10:00:50;143.10;;;127.82;;
8281;SDS011;25606;42.686;23.136;2023-08-30T10:03:17;170.90;;;153.10;;
8281;SDS011;25606;42.686;23.136;2023-08-30T10:05:46;190.75;;;173.35;;
8281;SDS011;25606;42.686;23.136;2023-08-30T10:08:13;260.27;;;238.25;;
8281;SDS011;25606;42.686;23.136;2023-08-30T10:10:41;249.77;;;228.30;;
8281;SDS011;25606;42.686;23.136;2023-08-30T10:13:08;227.32;;;208.73;;
8281;SDS011;25606;42.686;23.136;2023-08-30T10:15:39;240.25;;;220.73;;
8281;SDS011;25606;42.686;23.136;2023-08-30T10:18:09;235.70;;;216.15;;
8281;SDS011;25606;42.686;23.136;2023-08-30T10:20:38;189.35;;;171.15;;
8281;SDS011;25606;42.686;23.136;2023-08-30T10:23:05;230.35;;;209.57;;
8281;SDS011;25606;42.686;23.136;2023-08-30T10:25:33;262.42;;;239.88;;
8281;SDS011;25606;42.686;23.136;2023-08-30T10:28:01;221.27;;;202.20;;
8281;SDS011;25606;42.686;23.136;2023-08-30T10:30:29;140.93;;;128.65;;
8281;SDS011;25606;42.686;23.136;2023-08-30T10:32:57;214.23;;;195.55;;
8281;SDS011;25606;42.686;23.136;2023-08-30T10:35:26;270.00;;;246.13;;
8281;SDS011;25606;42.686;23.136;2023-08-30T10:37:53;249.00;;;226.65;;
8281;SDS011;25606;42.686;23.136;2023-08-30T10:40:21;313.20;;;287.52;;
8281;SDS011;25606;42.686;23.136;2023-08-30T10:42:58;299.40;;;274.38;;
8281;SDS011;25606;42.686;23.136;2023-08-30T10:45:25;242.70;;;220.40;;
8281;SDS011;25606;42.686;23.136;2023-08-30T10:47:54;242.45;;;221.52;;
8281;SDS011;25606;42.686;23.136;2023-08-30T10:50:28;194.65;;;177.43;;
8281;SDS011;25606;42.686;23.136;2023-08-30T10:52:56;180.43;;;163.77;;
8281;SDS011;25606;42.686;23.136;2023-08-30T10:55:23;146.77;;;133.18;;
8281;SDS011;25606;42.686;23.136;2023-08-30T10:57:57;174.68;;;158.63;;
8281;SDS011;25606;42.686;23.136;2023-08-30T11:00:27;185.82;;;168.95;;
8281;SDS011;25606;42.686;23.136;2023-08-30T11:02:54;106.30;;;96.28;;
8281;SDS011;25606;42.686;23.136;2023-08-30T11:05:22;137.45;;;124.60;;
8281;SDS011;25606;42.686;23.136;2023-08-30T11:07:51;130.43;;;118.25;;
8281;SDS011;25606;42.686;23.136;2023-08-30T11:10:19;128.10;;;116.10;;
8281;SDS011;25606;42.686;23.136;2023-08-30T11:12:47;110.70;;;99.65;;
8281;SDS011;25606;42.686;23.136;2023-08-30T11:15:15;101.78;;;91.78;;
8281;SDS011;25606;42.686;23.136;2023-08-30T11:17:42;103.07;;;93.15;;
8281;SDS011;25606;42.686;23.136;2023-08-30T11:20:10;104.45;;;94.43;;
8281;SDS011;25606;42.686;23.136;2023-08-30T11:22:38;112.75;;;101.32;;
8281;SDS011;25606;42.686;23.136;2023-08-30T11:25:09;149.07;;;133.43;;
8281;SDS011;25606;42.686;23.136;2023-08-30T11:27:36;173.52;;;156.93;;
8281;SDS011;25606;42.686;23.136;2023-08-30T11:30:04;217.65;;;196.95;;
8281;SDS011;25606;42.686;23.136;2023-08-30T11:32:33;224.52;;;203.40;;
8281;SDS011;25606;42.686;23.136;2023-08-30T11:35:00;246.70;;;223.63;;
8281;SDS011;25606;42.686;23.136;2023-08-30T11:37:28;277.50;;;253.27;;
8281;SDS011;25606;42.686;23.136;2023-08-30T11:39:56;274.85;;;251.13;;
8281;SDS011;25606;42.686;23.136;2023-08-30T11:42:24;288.45;;;262.33;;
8281;SDS011;25606;42.686;23.136;2023-08-30T11:44:52;377.35;;;347.98;;
8281;SDS011;25606;42.686;23.136;2023-08-30T11:47:19;327.55;;;300.90;;
8281;SDS011;25606;42.686;23.136;2023-08-30T11:49:47;338.88;;;312.55;;
8281;SDS011;25606;42.686;23.136;2023-08-30T11:52:15;243.57;;;223.15;;
8281;SDS011;25606;42.686;23.136;2023-08-30T11:54:43;305.35;;;280.48;;
8281;SDS011;25606;42.686;23.136;2023-08-30T11:57:10;343.30;;;316.40;;
8281;SDS011;25606;42.686;23.136;2023-08-30T11:59:39;366.92;;;338.55;;
8281;SDS011;25606;42.686;23.136;2023-08-30T12:02:07;389.02;;;360.23;;
8281;SDS011;25606;42.686;23.136;2023-08-30T12:04:39;411.45;;;380.80;;
8281;SDS011;25606;42.686;23.136;2023-08-30T12:07:07;375.15;;;346.30;;
8281;SDS011;25606;42.686;23.136;2023-08-30T12:09:36;405.95;;;375.02;;
8281;SDS011;25606;42.686;23.136;2023-08-30T12:12:06;413.38;;;383.40;;
8281;SDS011;25606;42.686;23.136;2023-08-30T12:14:35;387.48;;;356.65;;
8281;SDS011;25606;42.686;23.136;2023-08-30T12:17:04;354.55;;;326.70;;
8281;SDS011;25606;42.686;23.136;2023-08-30T12:19:33;363.08;;;335.15;;
8281;SDS011;25606;42.686;23.136;2023-08-30T12:22:04;405.88;;;375.15;;
8281;SDS011;25606;42.686;23.136;2023-08-30T12:24:42;414.90;;;384.08;;
8281;SDS011;25606;42.686;23.136;2023-08-30T12:27:10;433.77;;;401.63;;
8281;SDS011;25606;42.686;23.136;2023-08-30T12:29:37;340.27;;;312.77;;
8281;SDS011;25606;42.686;23.136;2023-08-30T12:32:06;480.88;;;446.88;;
8281;SDS011;25606;42.686;23.136;2023-08-30T12:34:34;504.08;;;468.25;;
8281;SDS011;25606;42.686;23.136;2023-08-30T12:37:02;386.90;;;357.27;;
8281;SDS011;25606;42.686;23.136;2023-08-30T12:39:29;437.60;;;405.35;;
8281;SDS011;25606;42.686;23.136;2023-08-30T12:41:56;433.10;;;401.55;;
8281;SDS011;25606;42.686;23.136;2023-08-30T12:44:24;506.02;;;468.92;;
8281;SDS011;25606;42.686;23.136;2023-08-30T12:46:51;379.60;;;349.05;;
8281;SDS011;25606;42.686;23.136;2023-08-30T12:49:20;379.85;;;350.13;;
8281;SDS011;25606;42.686;23.136;2023-08-30T12:51:47;391.08;;;360.77;;
8281;SDS011;25606;42.686;23.136;2023-08-30T12:54:14;434.77;;;402.15;;
8281;SDS011;25606;42.686;23.136;2023-08-30T12:56:42;430.65;;;398.88;;
8281;SDS011;25606;42.686;23.136;2023-08-30T12:59:09;323.40;;;297.00;;
8281;SDS011;25606;42.686;23.136;2023-08-30T13:01:36;395.67;;;366.80;;
8281;SDS011;25606;42.686;23.136;2023-08-30T13:04:04;342.52;;;316.38;;
8281;SDS011;25606;42.686;23.136;2023-08-30T13:06:32;370.50;;;341.05;;
8281;SDS011;25606;42.686;23.136;2023-08-30T13:09:00;371.92;;;342.67;;
8281;SDS011;25606;42.686;23.136;2023-08-30T13:11:28;355.00;;;326.45;;
8281;SDS011;25606;42.686;23.136;2023-08-30T13:13:57;373.95;;;344.58;;
8281;SDS011;25606;42.686;23.136;2023-08-30T13:16:25;366.52;;;337.77;;
8281;SDS011;25606;42.686;23.136;2023-08-30T13:18:52;443.60;;;411.65;;
8281;SDS011;25606;42.686;23.136;2023-08-30T13:21:19;402.35;;;371.85;;
8281;SDS011;25606;42.686;23.136;2023-08-30T13:23:48;363.85;;;335.25;;
8281;SDS011;25606;42.686;23.136;2023-08-30T13:26:15;305.25;;;279.83;;
8281;SDS011;25606;42.686;23.136;2023-08-30T13:28:42;331.08;;;302.58;;
8281;SDS011;25606;42.686;23.136;2023-08-30T13:31:10;299.55;;;273.58;;
8281;SDS011;25606;42.686;23.136;2023-08-30T13:33:37;317.98;;;290.15;;
8281;SDS011;25606;42.686;23.136;2023-08-30T13:36:04;326.65;;;298.60;;
8281;SDS011;25606;42.686;23.136;2023-08-30T13:38:32;336.73;;;309.02;;
8281;SDS011;25606;42.686;23.136;2023-08-30T13:41:01;325.60;;;297.95;;
8281;SDS011;25606;42.686;23.136;2023-08-30T13:43:29;480.75;;;447.40;;
8281;SDS011;25606;42.686;23.136;2023-08-30T13:45:56;519.83;;;483.52;;
8281;SDS011;25606;42.686;23.136;2023-08-30T13:48:24;465.23;;;433.67;;
8281;SDS011;25606;42.686;23.136;2023-08-30T13:50:51;473.98;;;440.98;;
8281;SDS011;25606;42.686;23.136;2023-08-30T13:53:18;424.50;;;394.10;;
8281;SDS011;25606;42.686;23.136;2023-08-30T13:55:46;444.63;;;413.30;;
8281;SDS011;25606;42.686;23.136;2023-08-30T13:58:15;354.23;;;328.17;;
8281;SDS011;25606;42.686;23.136;2023-08-30T14:00:43;301.60;;;279.98;;
8281;SDS011;25606;42.686;23.136;2023-08-30T14:03:10;275.65;;;254.82;;
8281;SDS011;25606;42.686;23.136;2023-08-30T14:05:38;269.88;;;248.32;;
8281;SDS011;25606;42.686;23.136;2023-08-30T14:08:06;316.20;;;291.50;;
8281;SDS011;25606;42.686;23.136;2023-08-30T14:10:33;430.55;;;399.35;;
8281;SDS011;25606;42.686;23.136;2023-08-30T14:13:00;454.63;;;421.95;;
8281;SDS011;25606;42.686;23.136;2023-08-30T14:15:29;419.13;;;388.10;;
8281;SDS011;25606;42.686;23.136;2023-08-30T14:17:57;351.33;;;326.00;;
8281;SDS011;25606;42.686;23.136;2023-08-30T14:20:24;386.08;;;357.48;;
8281;SDS011;25606;42.686;23.136;2023-08-30T14:22:51;297.60;;;274.13;;
8281;SDS011;25606;42.686;23.136;2023-08-30T14:25:18;306.25;;;284.10;;
8281;SDS011;25606;42.686;23.136;2023-08-30T14:27:46;292.48;;;271.45;;
8281;SDS011;25606;42.686;23.136;2023-08-30T14:30:13;218.02;;;200.90;;